Lorenzo Moschini si aggiudica lo Slalom Fis del Sestriere con il tempo di 1’37″00, precedendo Fabiano Canclini di 1″10, Francesco Sorio di 1″86 e Francesco Gori di 2″20.

Gli ultimi tre conquistano il podio del GP Italia junior, mentre il podio della categoria Aspiranti vede sul primo gradino Tobias Kastlunger, settimo nella classifica assoluta, davanti a Matteo Franzoso e a Tommaso Canclini.

Nella foto: Lorenzo Moschini.

La classifica:

Rank Bib FIS Code Name Year Nation Run 1 Run 2 Total Time Diff. FIS Points
 1  15  6292544 MOSCHINI Lorenzo  1997  ITA   47.11  49.89  1:37.00     26.10
 2  22  6292895 CANCLINI Fabiano  1998  ITA   47.30  50.80  1:38.10  +1.10  34.26
 3  7  6292395 SORIO Francesco  1997  ITA   48.26  50.60  1:38.86  +1.86  39.91
 4  8  6292401 GORI Francesco  1997  ITA   48.24  50.96  1:39.20  +2.20  42.43
 5  43  6291883 GRECCHI Riccardo  1996  ITA   49.09  50.17  1:39.26  +2.26  42.88
 6  9  6292508 VIETTI Federico  1997  ITA   48.30  51.41  1:39.71  +2.71  46.22
 7  50  6293252 KASTLUNGER Tobias  1999  ITA   49.05  50.71  1:39.76  +2.76  46.59
 8  40  6292478 ANDREIS Sebastiano  1997  ITA   49.39  50.59  1:39.98  +2.98  48.22
 9  4  6292938 TEDDE Michael  1998  ITA   47.62  52.43  1:40.05  +3.05  48.74
 10  26  6292765 TARANZANO Luca  1998  ITA   49.01  51.26  1:40.27  +3.27  50.37
 11  13  492065 ORTEGA Ricard  1996  ESP   48.41  52.01  1:40.42  +3.42  51.49
 12  25  6292776 GENTILLI Francesco  1998  ITA   48.76  51.67  1:40.43  +3.43  51.56
 13  28  6292179 ROSSI Patrick  1996  ITA   49.13  51.73  1:40.86  +3.86  54.75
 14  20  6190649 BLANC Alexis  1998  FRA   49.83  51.06  1:40.89  +3.89  54.97
 15  35  6292480 BELTRAME Andrea  1997  ITA   49.27  52.23  1:41.50  +4.50  59.50
 16  37  6292633 SCURI Alessandro  1997  ITA   49.39  52.69  1:42.08  +5.08  63.81
 17  41  6292664 SCHMUCK Martin  1997  ITA   49.93  52.24  1:42.17  +5.17  64.48
 18  33  6293164 FRANZOSO Matteo  1999  ITA   49.22  53.06  1:42.28  +5.28  65.29
 19  19  6292914 CANINS Matteo  1998  ITA   50.76  51.84  1:42.60  +5.60  67.67
 20  81  6293212 CANCLINI Tommaso  1999  ITA   50.57  53.01  1:43.58  +6.58  74.94
 21  51  6292953 NARDELLI Martin  1998  ITA   51.08  52.78  1:43.86  +6.86  77.02
 22  82  6293406 COLOMBI Francesco  2000  ITA   50.90  53.04  1:43.94  +6.94  77.61
 23  108  6293497 BERNARDI Mattia  2000  ITA   51.56  52.95  1:44.51  +7.51  81.84
 24  34  6293302 CORDONE Stefano  1999  ITA   50.90  54.14  1:45.04  +8.04  85.78
 25  97  6190878 LOPEZ Theo  2000  FRA   51.90  53.29  1:45.19  +8.19  86.89
 26  129  6190928 GIRAUD Victor  2000  FRA   51.32  54.16  1:45.48  +8.48  89.04
 27  85  6293216 IOZZELLI Davide  1999  ITA   51.36  54.29  1:45.65  +8.65  90.31
 28  44  221318 INNES Iain  1998  GBR   51.01  55.01  1:46.02  +9.02  93.05
 29  72  6300453 NAKAZAWA Shuntaro  1998  JPN   52.04  54.01  1:46.05  +9.05  93.28
 30  119  6190780 LORIN Corentin  1999  FRA   52.40  54.54  1:46.94  +9.94  99.88
 31  83  6292519 GIUNIPERO Edoardo  1997  ITA   52.12  55.19  1:47.31  +10.31  102.63
 32  95  6292769 CASTELLOTTI Matteo  1998  ITA   52.55  54.82  1:47.37  +10.37  103.07
 33  125  6190887 NORAZ Tony  2000  FRA   54.25  53.13  1:47.38  +10.38  103.15
 34  84  6292892 CHIECA Alessandro  1998  ITA   53.57  54.87  1:48.44  +11.44  111.02
 35  103  6293397 CASALINO Gabriele  2000  ITA   52.80  56.35  1:49.15  +12.15  116.29
 36  107  6293189 CALZATI Andrea  1999  ITA   53.40  57.04  1:50.44  +13.44  125.86
 37  115  6293559 ZANOTTO Alessandro  2000  ITA   54.50  56.56  1:51.06  +14.06  130.46
 38  90  6293326 GIORDANO Marco  1999  ITA   54.35  57.33  1:51.68  +14.68  135.06
 39  116  6293163 DUO Matteo  1999  ITA   54.99  56.79  1:51.78  +14.78  135.81
 40  100  6293407 CURRADO VIETTI Michele  2000  ITA   55.83  57.12  1:52.95  +15.95  144.49
 41  123  6293562 CASETTA Andrea  2000  ITA   1:00.75  58.50  1:59.25  +22.25  191.25

Commenta su Facebook

Commenti

LASCIA UN COMMENTO